Terminal Aerodrome Forecast
Issued by NWS

Home | Current Version | Previous Version | Text Only | Print | Product List | Glossary On
Versions: 1 2 3 4 5 6 7 8 9 10 11 12 13 14 15 16 17 18 19 20 21 22 23 24 25
000
FTUS41 KCAR 202300
TAFFVE
TAF
KFVE 202339Z 2100/2124 19012KT P6SM SCT025 OVC050
     FM210300 18010KT P6SM -RA OVC015
     FM210700 18009KT P6SM OVC007
     FM211000 19007KT 3SM BR BKN002
     FM211500 20015G25KT P6SM SCT015 BKN025
     FM212000 19012G22KT P6SM BKN015=

USA.gov is the U.S. government's official web portal to all federal, state and local government web resources and services.